createdAt,value
2023-03-19T00:00:10.188Z,96025.28
2023-03-19T00:02:49.899Z,96035.25
2023-03-19T00:05:22.577Z,96032.13
2023-03-19T00:07:55.503Z,96033.69
2023-03-19T00:10:28.263Z,96035.16
2023-03-19T00:13:01.074Z,96043.56
2023-03-19T00:15:33.926Z,96047.38
2023-03-19T00:18:08.776Z,96042.34
2023-03-19T00:20:41.837Z,96052.34
2023-03-19T00:23:14.557Z,96048.88
2023-03-19T00:25:47.249Z,96055.03
2023-03-19T00:28:19.954Z,96056.94
2023-03-19T00:30:52.834Z,96049.66
2023-03-19T00:33:27.576Z,96050.41
2023-03-19T00:36:00.910Z,96055.78
2023-03-19T00:38:34.340Z,96057.00
2023-03-19T00:41:07.511Z,96059.31
2023-03-19T00:43:41.236Z,96063.56
2023-03-19T00:46:14.677Z,96066.69
2023-03-19T00:48:48.844Z,96062.88
2023-03-19T00:51:21.633Z,96065.19
2023-03-19T00:53:54.686Z,96069.88
2023-03-19T00:56:27.533Z,96066.41
2023-03-19T00:59:00.329Z,96075.66
2023-03-19T01:01:33.074Z,96075.31
2023-03-19T01:04:07.566Z,96084.25
2023-03-19T01:06:40.296Z,96076.19
2023-03-19T01:09:12.977Z,96081.22
2023-03-19T01:11:45.869Z,96081.31
2023-03-19T01:14:18.637Z,96091.34
2023-03-19T01:16:51.332Z,96078.69
2023-03-19T01:19:25.505Z,96086.81
2023-03-19T01:21:58.366Z,96088.00
2023-03-19T01:24:31.285Z,96087.66
2023-03-19T01:27:04.039Z,96084.28
2023-03-19T01:29:36.898Z,96086.63
2023-03-19T01:32:09.721Z,96089.38
2023-03-19T01:34:43.756Z,96088.66
2023-03-19T01:37:16.543Z,96083.72
2023-03-19T01:39:49.467Z,96079.19
2023-03-19T01:42:22.259Z,96090.38
2023-03-19T01:44:55.279Z,96088.47
2023-03-19T01:47:31.590Z,96088.53
2023-03-19T01:50:06.349Z,96088.94
2023-03-19T01:52:38.980Z,96094.75
2023-03-19T01:55:11.999Z,96089.38
2023-03-19T01:57:44.779Z,96091.72
2023-03-19T02:00:17.773Z,96094.41
2023-03-19T02:02:53.843Z,96100.56
2023-03-19T02:05:28.474Z,96095.97
2023-03-19T02:08:02.457Z,96096.75
2023-03-19T02:10:36.090Z,96093.28
2023-03-19T02:13:09.113Z,96100.56
2023-03-19T02:15:42.134Z,96096.31
2023-03-19T02:18:16.112Z,96106.28
2023-03-19T02:20:52.786Z,96100.91
2023-03-19T02:23:29.310Z,96106.28
2023-03-19T02:26:06.302Z,96107.41
2023-03-19T02:28:40.847Z,96110.88
2023-03-19T02:31:13.861Z,96103.94
2023-03-19T02:33:46.756Z,96109.31
2023-03-19T02:36:21.016Z,96112.78
2023-03-19T02:38:54.717Z,96116.59
2023-03-19T02:41:29.763Z,96113.91
2023-03-19T02:44:03.740Z,96120.06
2023-03-19T02:46:36.702Z,96116.25
2023-03-19T02:49:09.428Z,96120.84
2023-03-19T02:51:42.252Z,96116.25
2023-03-19T02:54:14.902Z,96118.94
2023-03-19T02:56:49.208Z,96117.81
2023-03-19T02:59:22.048Z,96122.41
2023-03-19T03:01:55.126Z,96126.66
2023-03-19T03:04:27.808Z,96122.41
2023-03-19T03:07:00.949Z,96131.25
2023-03-19T03:09:33.666Z,96128.13
2023-03-19T03:12:08.466Z,96140.44
2023-03-19T03:14:41.920Z,96135.41
2023-03-19T03:17:15.574Z,96139.22
2023-03-19T03:19:49.023Z,96135.75
2023-03-19T03:22:21.725Z,96140.38
2023-03-19T03:24:54.415Z,96136.91
2023-03-19T03:27:28.581Z,96138.03
2023-03-19T03:30:01.445Z,96146.44
2023-03-19T03:32:34.480Z,96142.19
2023-03-19T03:35:08.317Z,96140.66
2023-03-19T03:37:41.073Z,96142.91
2023-03-19T03:40:14.435Z,96148.66
2023-03-19T03:42:48.539Z,96154.78
2023-03-19T03:45:21.256Z,96155.94
2023-03-19T03:47:53.982Z,96153.59
2023-03-19T03:50:26.682Z,96161.22
2023-03-19T03:52:59.372Z,96172.31
2023-03-19T03:55:32.128Z,96169.63
2023-03-19T03:58:06.805Z,96166.50
2023-03-19T04:00:39.588Z,96163.41
2023-03-19T04:03:12.861Z,96158.72
2023-03-19T04:05:45.859Z,96164.78
2023-03-19T04:08:18.902Z,96162.03
2023-03-19T04:10:51.820Z,96165.06
2023-03-19T04:13:26.521Z,96167.31
2023-03-19T04:15:59.288Z,96176.50
2023-03-19T04:18:32.034Z,96171.41
2023-03-19T04:21:04.969Z,96168.28
2023-03-19T04:23:37.731Z,96176.66
2023-03-19T04:26:12.423Z,96166.63
2023-03-19T04:28:46.566Z,96176.94
2023-03-19T04:31:19.357Z,96178.41
2023-03-19T04:33:52.541Z,96179.53
2023-03-19T04:36:25.426Z,96174.88
2023-03-19T04:38:58.161Z,96183.28
2023-03-19T04:41:30.954Z,96188.22
2023-03-19T04:44:05.065Z,96190.78
2023-03-19T04:46:37.802Z,96188.81
2023-03-19T04:49:10.827Z,96189.50
2023-03-19T04:51:43.587Z,96187.50
2023-03-19T04:54:16.611Z,96195.16
2023-03-19T04:56:49.282Z,96200.06
2023-03-19T04:59:23.544Z,96197.72
2023-03-19T05:01:56.803Z,96194.97
2023-03-19T05:04:29.490Z,96191.53
2023-03-19T05:07:02.239Z,96202.25
2023-03-19T05:09:34.961Z,96202.94
2023-03-19T05:12:08.560Z,96199.47
2023-03-19T05:14:43.005Z,96204.84
2023-03-19T05:17:15.754Z,96207.88
2023-03-19T05:19:48.716Z,96205.50
2023-03-19T05:22:21.579Z,96211.66
2023-03-19T05:24:54.313Z,96204.31
2023-03-19T05:27:27.446Z,96210.81
2023-03-19T05:30:01.679Z,96216.97
2023-03-19T05:32:34.533Z,96215.41
2023-03-19T05:35:07.662Z,96216.53
2023-03-19T05:37:40.747Z,96219.19
2023-03-19T05:40:13.743Z,96221.09
2023-03-19T05:42:46.565Z,96222.22
2023-03-19T05:45:20.799Z,96220.31
2023-03-19T05:47:53.836Z,96219.53
2023-03-19T05:50:26.632Z,96217.97
2023-03-19T05:52:59.400Z,96219.88
2023-03-19T05:55:32.134Z,96228.72
2023-03-19T05:58:05.882Z,96231.75
2023-03-19T06:00:40.069Z,96218.31
2023-03-19T06:03:13.062Z,96234.88
2023-03-19T06:05:45.814Z,96234.09
2023-03-19T06:08:18.899Z,96236.44
2023-03-19T06:10:51.877Z,96240.66
2023-03-19T06:13:24.570Z,96245.25
2023-03-19T06:15:58.731Z,96229.94
2023-03-19T06:18:32.107Z,96231.50
2023-03-19T06:21:05.191Z,96254.88
2023-03-19T06:23:37.811Z,96238.44
2023-03-19T06:26:10.535Z,96238.78
2023-03-19T06:28:43.264Z,96248.38
2023-03-19T06:31:17.714Z,96239.56
2023-03-19T06:33:50.451Z,96244.59
2023-03-19T06:36:23.182Z,96240.66
2023-03-19T06:38:56.181Z,96251.84
2023-03-19T06:41:28.949Z,96239.22
2023-03-19T06:44:01.673Z,96247.34
2023-03-19T06:46:36.103Z,96247.34
2023-03-19T06:49:08.880Z,96253.94
2023-03-19T06:51:41.673Z,96254.38
2023-03-19T06:54:14.419Z,96247.50
2023-03-19T06:56:47.818Z,96252.97
2023-03-19T06:59:20.616Z,96250.41
2023-03-19T07:01:54.708Z,96249.34
2023-03-19T07:04:27.485Z,96246.00
2023-03-19T07:07:02.534Z,96248.75
2023-03-19T07:09:35.223Z,96246.94
2023-03-19T07:12:08.309Z,96249.69
2023-03-19T07:14:41.071Z,96251.34
2023-03-19T07:17:15.500Z,96257.22
2023-03-19T07:19:48.229Z,96263.19
2023-03-19T07:22:21.892Z,96253.28
2023-03-19T07:24:54.576Z,96265.75
2023-03-19T07:27:27.634Z,96256.31
2023-03-19T07:30:00.319Z,96254.91
2023-03-19T07:32:34.509Z,96244.31
2023-03-19T07:35:07.838Z,96247.59
2023-03-19T07:37:40.831Z,96251.31
2023-03-19T07:40:13.861Z,96244.16
2023-03-19T07:42:46.805Z,96246.31
2023-03-19T07:45:19.640Z,96257.28
2023-03-19T07:47:53.721Z,96239.78
2023-03-19T07:50:26.675Z,96241.59
2023-03-19T07:52:59.566Z,96246.06
2023-03-19T07:55:32.317Z,96247.38
2023-03-19T07:58:05.054Z,96256.53
2023-03-19T08:00:37.764Z,96255.94
2023-03-19T08:03:12.206Z,96255.41
2023-03-19T08:05:44.942Z,96254.09
2023-03-19T08:08:17.750Z,96254.78
2023-03-19T08:10:50.994Z,96254.66
2023-03-19T08:13:23.823Z,96257.66
2023-03-19T08:15:56.572Z,96257.91
2023-03-19T08:18:30.739Z,96265.84
2023-03-19T08:21:03.958Z,96260.28
2023-03-19T08:23:36.673Z,96268.97
2023-03-19T08:26:09.436Z,96262.59
2023-03-19T08:28:42.217Z,96267.41
2023-03-19T08:31:15.277Z,96268.34
2023-03-19T08:33:49.377Z,96263.44
2023-03-19T08:36:22.190Z,96272.09
2023-03-19T08:38:55.098Z,96269.88
2023-03-19T08:41:27.764Z,96271.53
2023-03-19T08:44:00.790Z,96267.41
2023-03-19T08:46:34.147Z,96277.94
2023-03-19T08:49:08.329Z,96260.31
2023-03-19T08:51:40.955Z,96265.41
2023-03-19T08:54:13.890Z,96263.16
2023-03-19T08:56:46.769Z,96259.75
2023-03-19T08:59:19.843Z,96258.63
2023-03-19T09:01:53.364Z,96269.13
2023-03-19T09:04:28.190Z,96268.00
2023-03-19T09:07:01.123Z,96262.25
2023-03-19T09:09:34.494Z,96260.78
2023-03-19T09:12:08.064Z,96261.56
2023-03-19T09:14:41.160Z,96259.31
2023-03-19T09:17:15.623Z,96263.25
2023-03-19T09:19:49.831Z,96259.78
2023-03-19T09:22:22.577Z,96262.13
2023-03-19T09:24:55.718Z,96260.63
2023-03-19T09:27:28.692Z,96261.81
2023-03-19T09:30:01.493Z,96262.25
2023-03-19T09:32:34.245Z,96261.06
2023-03-19T09:35:09.222Z,96259.19
2023-03-19T09:37:41.946Z,96259.59
2023-03-19T09:40:22.345Z,96248.38
2023-03-19T09:43:00.695Z,96246.41
2023-03-19T09:45:33.767Z,96244.09
2023-03-19T09:48:09.023Z,96244.09
2023-03-19T09:50:43.606Z,96244.09
2023-03-19T09:53:19.228Z,96242.50
2023-03-19T09:55:54.209Z,96245.22
2023-03-19T09:58:29.277Z,96244.41
2023-03-19T10:01:02.194Z,96244.03
2023-03-19T10:03:44.436Z,96238.59
2023-03-19T10:06:26.731Z,96236.63
2023-03-19T10:09:05.881Z,96231.56
2023-03-19T10:11:46.648Z,96234.63
2023-03-19T10:14:33.441Z,96240.44
2023-03-19T10:17:07.778Z,96237.72
2023-03-19T10:19:43.108Z,96236.09
2023-03-19T10:22:20.590Z,96234.53
2023-03-19T10:24:55.421Z,96224.75
2023-03-19T10:27:29.800Z,96224.72
2023-03-19T10:30:02.596Z,96214.16
2023-03-19T10:32:39.644Z,96214.16
2023-03-19T10:35:19.297Z,96217.59
2023-03-19T10:37:55.314Z,96217.22
2023-03-19T10:40:31.257Z,96221.88
2023-03-19T10:43:07.703Z,96213.72
2023-03-19T10:45:40.901Z,96213.75
2023-03-19T10:48:14.725Z,96217.31
2023-03-19T10:50:50.506Z,96212.69
2023-03-19T10:53:30.061Z,96206.91
2023-03-19T10:56:03.880Z,96198.47
2023-03-19T10:58:37.990Z,96203.56
2023-03-19T11:01:12.118Z,96211.78
2023-03-19T11:03:51.916Z,96207.16
2023-03-19T11:06:26.495Z,96204.09
2023-03-19T11:09:02.280Z,96207.59
2023-03-19T11:11:36.755Z,96206.88
2023-03-19T11:14:11.045Z,96199.13
2023-03-19T11:16:57.383Z,96208.81
2023-03-19T11:19:31.032Z,96203.81
2023-03-19T11:22:09.860Z,96201.88
2023-03-19T11:24:49.970Z,96201.06
2023-03-19T11:27:29.799Z,96204.91
2023-03-19T11:30:02.654Z,96198.34
2023-03-19T11:32:53.579Z,96197.16
2023-03-19T11:35:28.901Z,96189.75
2023-03-19T11:38:02.782Z,96180.03
2023-03-19T11:40:44.771Z,96185.03
2023-03-19T11:43:29.862Z,96179.94
2023-03-19T11:46:08.136Z,96180.28
2023-03-19T11:48:47.714Z,96187.59
2023-03-19T11:51:23.665Z,96170.88
2023-03-19T11:54:00.819Z,96178.63
2023-03-19T11:56:41.025Z,96173.94
2023-03-19T11:59:25.809Z,96179.34
2023-03-19T12:02:10.410Z,96172.34
2023-03-19T12:04:49.658Z,96167.28
2023-03-19T12:07:26.845Z,96170.75
2023-03-19T12:10:04.431Z,96170.75
2023-03-19T12:12:42.407Z,96176.94
2023-03-19T12:15:19.789Z,96171.09
2023-03-19T12:18:00.011Z,96167.53
2023-03-19T12:20:36.209Z,96170.97
2023-03-19T12:23:14.207Z,96169.34
2023-03-19T12:26:04.706Z,96161.88
2023-03-19T12:28:43.200Z,96159.03
2023-03-19T12:31:28.446Z,96162.44
2023-03-19T12:34:07.429Z,96165.84
2023-03-19T12:36:42.940Z,96158.41
2023-03-19T12:39:20.237Z,96156.38
2023-03-19T12:41:53.568Z,96159.41
2023-03-19T12:44:31.809Z,96157.84
2023-03-19T12:47:07.370Z,96146.56
2023-03-19T12:49:43.283Z,96150.84
2023-03-19T12:52:19.851Z,96146.94
2023-03-19T12:54:57.214Z,96155.09
2023-03-19T12:57:33.383Z,96155.88
2023-03-19T13:00:12.508Z,96154.28
2023-03-19T13:02:49.204Z,96149.59
2023-03-19T13:05:26.318Z,96145.31
2023-03-19T13:08:03.111Z,96148.41
2023-03-19T13:10:36.398Z,96159.22
2023-03-19T13:13:16.398Z,96158.81
2023-03-19T13:15:54.233Z,96152.56
2023-03-19T13:18:34.404Z,96146.28
2023-03-19T13:21:22.555Z,96147.44
2023-03-19T13:24:04.069Z,96150.13
2023-03-19T13:26:37.624Z,96155.53
2023-03-19T13:29:17.132Z,96155.50
2023-03-19T13:31:52.084Z,96154.69
2023-03-19T13:34:28.778Z,96155.44
2023-03-19T13:37:03.009Z,96157.75
2023-03-19T13:39:36.566Z,96156.97
2023-03-19T13:42:35.981Z,96149.22
2023-03-19T13:45:23.527Z,96160.94
2023-03-19T13:47:58.719Z,96146.56
2023-03-19T13:50:33.525Z,96150.91
2023-03-19T13:53:15.011Z,96155.22
2023-03-19T13:55:51.437Z,96143.16
2023-03-19T13:58:43.507Z,96146.34
2023-03-19T14:01:34.851Z,96149.94
2023-03-19T14:04:16.893Z,96148.09
2023-03-19T14:06:50.275Z,96147.03
2023-03-19T14:09:31.583Z,96155.31
2023-03-19T14:12:21.925Z,96153.06
2023-03-19T14:14:57.172Z,96148.53
2023-03-19T14:17:32.689Z,96150.59
2023-03-19T14:20:28.022Z,96150.31
2023-03-19T14:23:23.471Z,96159.00
2023-03-19T14:26:01.361Z,96157.53
2023-03-19T14:28:36.783Z,96161.88
2023-03-19T14:31:19.516Z,96161.97
2023-03-19T14:33:55.246Z,96162.03
2023-03-19T14:36:29.855Z,96157.84
2023-03-19T14:39:05.140Z,96166.03
2023-03-19T14:41:43.346Z,96162.59
2023-03-19T14:44:30.868Z,96178.91
2023-03-19T14:47:12.412Z,96179.72
2023-03-19T14:49:52.743Z,96181.69
2023-03-19T14:52:28.121Z,96186.78
2023-03-19T14:55:01.629Z,96190.28
2023-03-19T14:57:35.883Z,96192.16
2023-03-19T15:00:15.103Z,96197.59
2023-03-19T15:02:48.805Z,96205.31
2023-03-19T15:05:23.932Z,96199.09
2023-03-19T15:07:59.444Z,96202.91
2023-03-19T15:10:36.907Z,96211.00
2023-03-19T15:13:19.633Z,96209.00
2023-03-19T15:16:10.466Z,96215.88
2023-03-19T15:18:43.616Z,96220.09
2023-03-19T15:21:16.606Z,96218.47
2023-03-19T15:23:50.837Z,96216.47
2023-03-19T15:26:33.979Z,96222.53
2023-03-19T15:29:11.685Z,96224.38
2023-03-19T15:31:52.873Z,96226.91
2023-03-19T15:34:30.436Z,96223.69
2023-03-19T15:37:05.721Z,96230.19
2023-03-19T15:39:42.721Z,96235.06
2023-03-19T15:42:17.231Z,96236.09
2023-03-19T15:44:51.210Z,96235.22
2023-03-19T15:47:25.971Z,96243.22
2023-03-19T15:50:00.019Z,96252.28
2023-03-19T15:52:33.373Z,96247.94
2023-03-19T15:55:08.711Z,96248.94
2023-03-19T15:57:42.306Z,96253.81
2023-03-19T16:00:15.929Z,96262.91
2023-03-19T16:02:50.215Z,96270.09
2023-03-19T16:05:26.456Z,96272.63
2023-03-19T16:08:00.546Z,96281.34
2023-03-19T16:10:39.766Z,96281.59
2023-03-19T16:13:24.421Z,96275.25
2023-03-19T16:16:01.659Z,96281.22
2023-03-19T16:18:42.611Z,96291.47
2023-03-19T16:21:17.921Z,96291.28
2023-03-19T16:23:59.351Z,96298.47
2023-03-19T16:26:39.478Z,96297.56
2023-03-19T16:29:20.655Z,96299.41
2023-03-19T16:31:54.074Z,96302.41
2023-03-19T16:34:32.268Z,96303.47
2023-03-19T16:37:19.982Z,96306.50
2023-03-19T16:39:55.261Z,96310.72
2023-03-19T16:42:38.102Z,96318.72
2023-03-19T16:45:21.507Z,96322.19
2023-03-19T16:47:55.144Z,96325.56
2023-03-19T16:50:30.433Z,96336.72
2023-03-19T16:53:05.165Z,96345.16
2023-03-19T16:55:38.477Z,96348.53
2023-03-19T16:58:16.104Z,96354.72
2023-03-19T17:00:48.897Z,96350.81
2023-03-19T17:03:22.210Z,96355.78
2023-03-19T17:05:55.054Z,96352.66
2023-03-19T17:08:27.826Z,96355.34
2023-03-19T17:11:00.611Z,96347.19
2023-03-19T17:13:37.594Z,96348.31
2023-03-19T17:16:10.727Z,96353.69
2023-03-19T17:18:45.011Z,96350.59
2023-03-19T17:21:19.451Z,96357.13
2023-03-19T17:23:52.283Z,96350.53
2023-03-19T17:26:27.277Z,96358.16
2023-03-19T17:29:01.352Z,96353.91
2023-03-19T17:31:34.448Z,96348.91
2023-03-19T17:34:10.653Z,96336.94
2023-03-19T17:36:44.211Z,96342.66
2023-03-19T17:39:17.160Z,96349.88
2023-03-19T17:41:50.057Z,96352.94
2023-03-19T17:44:24.275Z,96352.03
2023-03-19T17:46:57.202Z,96354.22
2023-03-19T17:49:32.274Z,96355.63
2023-03-19T17:52:05.155Z,96355.91
2023-03-19T17:54:38.038Z,96359.22
2023-03-19T17:57:13.049Z,96356.72
2023-03-19T17:59:47.117Z,96352.72
2023-03-19T18:02:28.000Z,96362.91
2023-03-19T18:05:02.245Z,96364.22
2023-03-19T18:07:35.024Z,96356.34
2023-03-19T18:10:08.262Z,96355.38
2023-03-19T18:12:40.963Z,96364.38
2023-03-19T18:15:15.353Z,96355.34
2023-03-19T18:17:49.591Z,96360.91
2023-03-19T18:20:23.912Z,96359.16
2023-03-19T18:22:56.540Z,96363.88
2023-03-19T18:25:32.113Z,96362.91
2023-03-19T18:28:05.603Z,96375.72
2023-03-19T18:30:41.415Z,96376.66
2023-03-19T18:33:16.470Z,96380.28
2023-03-19T18:35:49.304Z,96375.50
2023-03-19T18:38:23.345Z,96371.38
2023-03-19T18:40:56.586Z,96377.34
2023-03-19T18:43:29.648Z,96382.94
2023-03-19T18:46:04.287Z,96380.06
2023-03-19T18:48:37.038Z,96383.44
2023-03-19T18:51:11.311Z,96394.50
2023-03-19T18:53:44.179Z,96397.06
2023-03-19T18:56:21.517Z,96398.97
2023-03-19T18:58:54.910Z,96403.88
2023-03-19T19:01:29.552Z,96400.78
2023-03-19T19:04:02.338Z,96410.72
2023-03-19T19:06:46.930Z,96414.53
2023-03-19T19:09:21.062Z,96423.34
2023-03-19T19:11:54.488Z,96432.84
2023-03-19T19:14:27.192Z,96437.88
2023-03-19T19:17:01.314Z,96446.72
2023-03-19T19:19:34.959Z,96441.69
2023-03-19T19:22:07.727Z,96452.06
2023-03-19T19:24:40.436Z,96456.66
2023-03-19T19:27:16.626Z,96462.03
2023-03-19T19:29:50.218Z,96458.88
2023-03-19T19:32:25.810Z,96460.00
2023-03-19T19:34:58.509Z,96456.13
2023-03-19T19:37:31.320Z,96460.56
2023-03-19T19:40:04.178Z,96468.63
2023-03-19T19:42:37.123Z,96468.50
2023-03-19T19:45:18.457Z,96469.97
2023-03-19T19:47:52.930Z,96463.03
2023-03-19T19:50:27.637Z,96471.41
2023-03-19T19:53:00.569Z,96472.19
2023-03-19T19:55:33.879Z,96470.31
2023-03-19T19:58:08.650Z,96479.13
2023-03-19T20:00:45.627Z,96479.91
2023-03-19T20:03:25.258Z,96476.13
2023-03-19T20:05:58.277Z,96489.16
2023-03-19T20:08:31.303Z,96482.69
2023-03-19T20:11:04.117Z,96491.97
2023-03-19T20:13:37.802Z,96483.94
2023-03-19T20:16:11.559Z,96482.03
2023-03-19T20:18:46.120Z,96493.22
2023-03-19T20:21:18.754Z,96486.72
2023-03-19T20:23:55.311Z,96491.31
2023-03-19T20:26:30.787Z,96490.53
2023-03-19T20:29:03.903Z,96490.53
2023-03-19T20:31:37.543Z,96487.41
2023-03-19T20:34:22.583Z,96491.97
2023-03-19T20:37:01.806Z,96499.25
2023-03-19T20:39:34.616Z,96492.31
2023-03-19T20:42:09.732Z,96498.78
2023-03-19T20:44:43.162Z,96495.69
2023-03-19T20:47:17.643Z,96499.00
2023-03-19T20:49:53.428Z,96505.03
2023-03-19T20:52:26.178Z,96504.94
2023-03-19T20:54:59.332Z,96514.44
2023-03-19T20:57:32.088Z,96505.03
2023-03-19T21:00:17.869Z,96508.38
2023-03-19T21:02:51.470Z,96511.28
2023-03-19T21:05:27.004Z,96517.28
2023-03-19T21:07:59.754Z,96511.47
2023-03-19T21:10:33.682Z,96514.91
2023-03-19T21:13:07.244Z,96513.03
2023-03-19T21:15:40.162Z,96502.31
2023-03-19T21:18:13.347Z,96504.31
2023-03-19T21:20:49.668Z,96510.00
2023-03-19T21:23:25.765Z,96503.41
2023-03-19T21:25:58.826Z,96503.75
2023-03-19T21:28:35.624Z,96508.22
2023-03-19T21:31:10.231Z,96506.09
2023-03-19T21:33:43.520Z,96510.41
2023-03-19T21:36:17.999Z,96504.38
2023-03-19T21:38:51.770Z,96502.53
2023-03-19T21:41:26.331Z,96502.63
2023-03-19T21:44:02.004Z,96498.81
2023-03-19T21:46:35.032Z,96496.53
2023-03-19T21:49:09.542Z,96495.38
2023-03-19T21:51:44.053Z,96495.75
2023-03-19T21:54:16.768Z,96488.16
2023-03-19T21:56:49.613Z,96490.41
2023-03-19T21:59:23.738Z,96480.88
2023-03-19T22:01:56.515Z,96486.31
2023-03-19T22:04:29.164Z,96481.63
2023-03-19T22:07:03.604Z,96487.47
2023-03-19T22:09:37.388Z,96472.59
2023-03-19T22:12:18.299Z,96477.19
2023-03-19T22:14:52.285Z,96471.13
2023-03-19T22:17:26.658Z,96466.91
2023-03-19T22:19:59.399Z,96473.56
2023-03-19T22:22:34.104Z,96469.03
2023-03-19T22:25:07.447Z,96468.75
2023-03-19T22:27:40.753Z,96478.06
2023-03-19T22:30:21.753Z,96480.41
2023-03-19T22:32:56.213Z,96485.16
2023-03-19T22:35:28.929Z,96483.75
2023-03-19T22:38:03.047Z,96488.03
2023-03-19T22:40:35.963Z,96495.88
2023-03-19T22:43:15.553Z,96501.41
2023-03-19T22:45:51.960Z,96519.13
2023-03-19T22:48:24.785Z,96512.09
2023-03-19T22:50:57.498Z,96514.28
2023-03-19T22:53:33.051Z,96510.03
2023-03-19T22:56:06.128Z,96513.97
2023-03-19T22:58:39.024Z,96524.78
2023-03-19T23:01:29.182Z,96518.81
2023-03-19T23:04:15.323Z,96509.22
2023-03-19T23:06:48.181Z,96510.63
2023-03-19T23:09:24.146Z,96517.84
2023-03-19T23:11:57.941Z,96516.72
2023-03-19T23:14:31.404Z,96513.53
2023-03-19T23:17:09.246Z,96519.31
2023-03-19T23:19:41.995Z,96504.72
2023-03-19T23:22:16.059Z,96514.22
2023-03-19T23:24:50.283Z,96512.31
2023-03-19T23:27:24.641Z,96515.59
2023-03-19T23:29:57.589Z,96524.69
2023-03-19T23:32:30.259Z,96520.09
2023-03-19T23:35:02.936Z,96520.69
2023-03-19T23:37:35.666Z,96518.63
2023-03-19T23:40:11.732Z,96528.81
2023-03-19T23:42:46.350Z,96532.41
2023-03-19T23:45:29.071Z,96531.91
2023-03-19T23:48:03.258Z,96536.59
2023-03-19T23:50:36.768Z,96544.00
2023-03-19T23:53:18.693Z,96542.88
2023-03-19T23:55:55.612Z,96546.78
2023-03-19T23:58:31.250Z,96548.34
